createdAt,value
2023-11-03T00:04:58.704Z,1.10
2023-11-03T00:10:00.129Z,1.05
2023-11-03T00:15:01.440Z,0.95
2023-11-03T00:20:02.852Z,0.60
2023-11-03T00:25:04.328Z,0.80
2023-11-03T00:30:06.060Z,0.70
2023-11-03T00:35:07.530Z,0.55
2023-11-03T00:40:09.013Z,0.70
2023-11-03T00:45:10.491Z,0.60
2023-11-03T00:50:11.811Z,1.42
2023-11-03T00:55:13.100Z,0.95
2023-11-03T01:00:14.525Z,0.80
2023-11-03T01:05:16.263Z,1.05
2023-11-03T01:10:18.008Z,1.27
2023-11-03T01:15:19.376Z,1.20
2023-11-03T01:20:20.786Z,1.58
2023-11-03T01:25:22.232Z,1.10
2023-11-03T01:30:23.633Z,0.93
2023-11-03T01:35:24.894Z,0.90
2023-11-03T01:40:26.160Z,0.70
2023-11-03T01:45:27.392Z,0.75
2023-11-03T01:50:29.164Z,0.98
2023-11-03T01:55:31.416Z,1.23
2023-11-03T02:00:32.761Z,1.40
2023-11-03T02:05:34.320Z,1.10
2023-11-03T02:10:35.888Z,1.30
2023-11-03T02:15:37.693Z,0.98
2023-11-03T02:20:39.144Z,0.85
2023-11-03T02:25:40.407Z,1.38
2023-11-03T02:30:41.734Z,1.00
2023-11-03T02:35:43.018Z,1.00
2023-11-03T02:40:44.869Z,1.05
2023-11-03T02:45:46.153Z,0.90
2023-11-03T02:50:47.414Z,0.88
2023-11-03T02:55:48.680Z,1.15
2023-11-03T03:00:49.900Z,1.15
2023-11-03T03:05:51.203Z,1.30
2023-11-03T03:10:52.491Z,1.33
2023-11-03T03:15:53.751Z,1.20
2023-11-03T03:20:54.986Z,1.20
2023-11-03T03:25:56.227Z,1.65
2023-11-03T03:30:57.470Z,1.30
2023-11-03T03:35:58.759Z,1.40
2023-11-03T03:41:00.063Z,1.65
2023-11-03T03:46:01.321Z,1.20
2023-11-03T03:51:02.599Z,1.15
2023-11-03T03:56:04.011Z,1.42
2023-11-03T04:01:05.842Z,1.65
2023-11-03T04:06:10.019Z,1.23
2023-11-03T04:11:11.366Z,1.60
2023-11-03T04:16:12.605Z,1.20
2023-11-03T04:21:14.033Z,1.50
2023-11-03T04:26:15.286Z,1.30
2023-11-03T04:31:16.579Z,1.25
2023-11-03T04:36:17.875Z,1.13
2023-11-03T04:41:19.179Z,1.10
2023-11-03T04:46:20.404Z,0.90
2023-11-03T04:51:21.728Z,1.50
2023-11-03T04:56:22.961Z,1.13
2023-11-03T05:01:24.249Z,1.08
2023-11-03T05:06:25.497Z,1.40
2023-11-03T05:11:27.015Z,1.17
2023-11-03T05:16:28.362Z,2.17
2023-11-03T05:21:29.578Z,1.52
2023-11-03T05:26:30.798Z,1.35
2023-11-03T05:31:32.134Z,1.35
2023-11-03T05:36:33.388Z,1.15
2023-11-03T05:41:34.754Z,1.17
2023-11-03T05:46:35.994Z,0.88
2023-11-03T05:51:37.276Z,1.10
2023-11-03T05:56:38.532Z,0.95
2023-11-03T06:01:39.841Z,0.90
2023-11-03T06:06:41.486Z,0.82
2023-11-03T06:11:43.335Z,0.95
2023-11-03T06:16:44.639Z,0.95
2023-11-03T06:21:45.927Z,0.73
2023-11-03T06:26:47.192Z,1.15
2023-11-03T06:31:48.500Z,0.90
2023-11-03T06:36:50.023Z,1.40
2023-11-03T06:41:51.334Z,0.90
2023-11-03T06:46:52.583Z,0.90
2023-11-03T06:51:53.819Z,0.85
2023-11-03T06:56:55.600Z,1.00
2023-11-03T07:01:57.422Z,0.77
2023-11-03T07:06:58.639Z,1.20
2023-11-03T07:12:00.293Z,0.77
2023-11-03T07:17:01.594Z,0.82
2023-11-03T07:22:03.139Z,0.80
2023-11-03T07:27:04.568Z,1.00
2023-11-03T07:32:06.066Z,0.65
2023-11-03T07:37:07.364Z,0.75
2023-11-03T07:42:08.583Z,1.02
2023-11-03T07:47:09.925Z,0.88
2023-11-03T07:52:11.225Z,0.82
2023-11-03T07:57:12.446Z,0.88
2023-11-03T08:02:13.763Z,0.88
2023-11-03T08:07:15.069Z,1.17
2023-11-03T08:12:16.732Z,0.63
2023-11-03T08:17:19.868Z,1.00
2023-11-03T08:22:21.247Z,0.70
2023-11-03T08:27:22.622Z,1.30
2023-11-03T08:32:23.831Z,1.00
2023-11-03T08:37:25.180Z,0.88
2023-11-03T08:42:26.694Z,0.80
2023-11-03T08:47:28.174Z,1.20
2023-11-03T08:52:30.159Z,0.77
2023-11-03T08:57:31.582Z,1.05
2023-11-03T09:02:32.856Z,1.00
2023-11-03T09:07:34.240Z,1.27
2023-11-03T09:12:36.034Z,1.00
2023-11-03T09:17:37.815Z,1.40
2023-11-03T09:22:40.675Z,1.05
2023-11-03T09:27:42.868Z,1.23
2023-11-03T09:32:44.264Z,0.57
2023-11-03T09:37:45.543Z,0.77
2023-11-03T09:42:46.965Z,1.17
2023-11-03T09:47:49.679Z,1.27
2023-11-03T09:52:54.803Z,1.10
2023-11-03T09:57:58.443Z,1.13
2023-11-03T10:03:00.161Z,0.63
2023-11-03T10:08:01.396Z,0.90
2023-11-03T10:13:03.444Z,1.02
2023-11-03T10:18:04.855Z,1.13
2023-11-03T10:23:06.168Z,0.88
2023-11-03T10:28:08.328Z,1.05
2023-11-03T10:33:09.858Z,0.88
2023-11-03T10:38:11.539Z,0.90
2023-11-03T10:43:13.752Z,1.38
2023-11-03T10:48:31.431Z,1.27
2023-11-03T10:53:32.808Z,0.82
2023-11-03T10:58:34.726Z,1.05
2023-11-03T11:03:43.784Z,0.93
2023-11-03T11:08:46.336Z,1.20
2023-11-03T11:13:47.870Z,0.85
2023-11-03T11:18:53.420Z,0.90
2023-11-03T11:23:56.067Z,1.30
2023-11-03T11:29:00.306Z,1.30
2023-11-03T11:34:04.521Z,1.40
2023-11-03T11:39:09.978Z,1.27
2023-11-03T11:44:11.577Z,0.90
2023-11-03T11:49:14.131Z,1.10
2023-11-03T11:54:19.956Z,1.42
2023-11-03T11:59:22.195Z,1.35
2023-11-03T12:04:25.372Z,1.38
2023-11-03T12:09:26.713Z,1.13
2023-11-03T12:14:28.269Z,0.93
2023-11-03T12:19:31.271Z,1.00
2023-11-03T12:24:32.516Z,1.15
2023-11-03T12:29:33.881Z,1.42
2023-11-03T12:40:20.773Z,1.88
2023-11-03T12:45:22.011Z,0.80
2023-11-03T12:50:26.880Z,1.02
2023-11-03T12:55:34.954Z,1.45
2023-11-03T13:00:36.341Z,1.20
2023-11-03T13:05:39.200Z,1.55
2023-11-03T13:10:43.323Z,1.85
2023-11-03T13:15:45.009Z,1.13
2023-11-03T13:20:50.121Z,1.02
2023-11-03T13:25:51.450Z,1.90
2023-11-03T13:30:52.901Z,1.20
2023-11-03T13:35:54.217Z,1.05
2023-11-03T13:40:55.508Z,1.45
2023-11-03T13:46:00.310Z,1.25
2023-11-03T13:51:01.729Z,1.20
2023-11-03T13:56:03.468Z,1.30
2023-11-03T14:01:04.973Z,1.35
2023-11-03T14:06:06.263Z,1.27
2023-11-03T14:11:07.511Z,1.77
2023-11-03T14:16:08.830Z,1.52
2023-11-03T14:21:10.096Z,1.90
2023-11-03T14:26:11.339Z,1.38
2023-11-03T14:31:12.601Z,1.85
2023-11-03T14:36:14.621Z,1.05
2023-11-03T14:41:15.957Z,2.05
2023-11-03T14:46:17.339Z,1.50
2023-11-03T14:51:18.574Z,1.70
2023-11-03T14:56:19.825Z,2.08
2023-11-03T15:01:21.094Z,2.08
2023-11-03T15:06:22.474Z,1.48
2023-11-03T15:11:23.862Z,1.48
2023-11-03T15:16:25.637Z,1.73
2023-11-03T15:21:26.887Z,1.95
2023-11-03T15:26:28.110Z,1.77
2023-11-03T15:31:29.379Z,1.25
2023-11-03T15:36:30.590Z,1.42
2023-11-03T15:41:31.830Z,1.42
2023-11-03T15:46:36.121Z,1.50
2023-11-03T15:51:37.418Z,1.65
2023-11-03T15:56:38.633Z,1.67
2023-11-03T16:01:39.871Z,1.52
2023-11-03T16:06:41.141Z,1.80
2023-11-03T16:11:43.565Z,1.70
2023-11-03T16:16:44.997Z,1.60
2023-11-03T16:21:46.296Z,2.05
2023-11-03T16:26:47.585Z,1.98
2023-11-03T16:31:48.948Z,2.65
2023-11-03T16:36:50.151Z,2.25
2023-11-03T16:41:51.367Z,1.70
2023-11-03T16:46:52.590Z,1.83
2023-11-03T16:51:54.189Z,2.20
2023-11-03T16:56:55.475Z,1.52
2023-11-03T17:01:56.766Z,2.22
2023-11-03T17:06:58.040Z,1.60
2023-11-03T17:11:59.313Z,2.17
2023-11-03T17:17:02.774Z,4.78
2023-11-03T17:22:04.148Z,3.20
2023-11-03T17:27:05.415Z,3.83
2023-11-03T17:32:06.877Z,2.03
2023-11-03T17:37:08.245Z,2.33
2023-11-03T17:42:09.510Z,2.05
2023-11-03T17:47:10.999Z,2.13
2023-11-03T17:52:12.243Z,3.33
2023-11-03T17:57:13.455Z,1.70
2023-11-03T18:02:14.796Z,1.70
2023-11-03T18:07:16.040Z,1.40
2023-11-03T18:12:17.326Z,1.80
2023-11-03T18:17:18.596Z,2.38
2023-11-03T18:22:19.850Z,1.85
2023-11-03T18:27:21.787Z,1.77
2023-11-03T18:32:23.012Z,2.00
2023-11-03T18:37:24.250Z,2.08
2023-11-03T18:42:25.507Z,1.67
2023-11-03T18:47:26.761Z,1.65
2023-11-03T18:52:28.009Z,2.00
2023-11-03T19:07:39.977Z,2.13
2023-11-03T19:12:42.689Z,3.00
2023-11-03T19:17:44.167Z,1.60
2023-11-03T19:22:45.412Z,2.10
2023-11-03T19:27:46.661Z,2.00
2023-11-03T19:32:48.027Z,2.47
2023-11-03T19:37:49.340Z,1.95
2023-11-03T19:42:50.598Z,2.85
2023-11-03T19:47:51.894Z,2.42
2023-11-03T19:52:53.199Z,2.88
2023-11-03T19:57:54.403Z,1.55
2023-11-03T20:02:55.673Z,1.60
2023-11-03T20:07:56.980Z,1.60
2023-11-03T20:12:58.207Z,1.70
2023-11-03T20:17:59.778Z,1.70
2023-11-03T20:23:01.121Z,1.23
2023-11-03T20:28:02.385Z,1.83
2023-11-03T20:33:03.652Z,1.80
2023-11-03T20:38:05.178Z,1.70
2023-11-03T20:43:06.428Z,2.15
2023-11-03T20:48:07.820Z,2.55
2023-11-03T20:53:09.153Z,1.80
2023-11-03T20:58:10.369Z,1.90
2023-11-03T21:03:11.679Z,2.33
2023-11-03T21:08:13.067Z,2.30
2023-11-03T21:13:14.301Z,1.38
2023-11-03T21:18:15.778Z,1.63
2023-11-03T21:23:17.555Z,2.00
2023-11-03T21:28:18.775Z,1.70
2023-11-03T21:33:20.317Z,2.20
2023-11-03T21:38:21.591Z,1.63
2023-11-03T21:43:22.811Z,1.67
2023-11-03T21:48:24.106Z,2.38
2023-11-03T21:53:25.416Z,2.45
2023-11-03T21:58:26.639Z,1.65
2023-11-03T22:03:28.226Z,1.83
2023-11-03T22:08:29.499Z,1.77
2023-11-03T22:13:30.842Z,1.65
2023-11-03T22:18:32.225Z,1.30
2023-11-03T22:23:33.528Z,1.38
2023-11-03T22:28:34.845Z,1.48
2023-11-03T22:33:36.162Z,1.85
2023-11-03T22:38:37.503Z,1.52
2023-11-03T22:43:38.737Z,1.48
2023-11-03T22:48:40.050Z,2.03
2023-11-03T22:53:41.340Z,1.58
2023-11-03T22:58:42.602Z,1.45
2023-11-03T23:03:43.906Z,1.65
2023-11-03T23:08:45.219Z,1.80
2023-11-03T23:13:46.492Z,1.75
2023-11-03T23:18:47.758Z,1.20
2023-11-03T23:23:49.016Z,1.20
2023-11-03T23:28:53.405Z,1.63
2023-11-03T23:33:54.858Z,1.52
2023-11-03T23:38:56.160Z,1.55
2023-11-03T23:43:57.419Z,1.40
2023-11-03T23:48:58.703Z,1.17
2023-11-03T23:53:59.992Z,1.38
2023-11-03T23:59:01.207Z,1.52
